Meryem Nejla Ana — TCTL2 — position and weather

sailwx.info

Track history (hours):
 
Tides and Currents Weather Stations Pressure Air Temp Water Temp Dewpoint Dewpoint Depression Visibility Wind Speed Wind Dir Waves Ship Positions

Meryem Nejla Ana

Last reported at 2017-Oct-04 14:34 UTC. Time now 2017-Oct-17 08:01 UTC.
Position N 40°55' E 029°04'.
Warning: this ship's position is 12 days out of date.

Length 94 m; draft 6.7 m.

Type: Ship. MMSI: 271002689.

Date/timePositionNaut miles runAvg speedWind from/ knotsBaromVisibWave heightAir tempDewpointWater temp
2017-Oct-04 14:34N 40°55' E 029°04'1 8.2
2017-Oct-04 14:28N 40°55' E 029°05'4 9.3
2017-Oct-04 14:00N 40°52' E 029°10'1 1.4
2017-Oct-04 13:24N 40°52' E 029°11'0 0.0
2017-Oct-04 13:00N 40°52' E 029°11'0 0.0
2017-Oct-04 12:29N 40°52' E 029°11'0 0.1
2017-Oct-04 12:00N 40°52' E 029°11'2 3.1
2017-Oct-04 11:30N 40°51' E 029°12'5 9.3
2017-Oct-04 11:00N 40°47' E 029°15'5 9.0
2017-Oct-04 10:30N 40°45' E 029°20'4 0.1
2017-Oct-02 22:41N 40°44' E 029°25'210.6
2017-Oct-02 22:27N 40°43' E 029°22'2 5.4
2017-Oct-02 22:00N 40°44' E 029°19'5 9.2
2017-Oct-02 21:30N 40°46' E 029°14'5 9.2
2017-Oct-02 21:00N 40°51' E 029°12'1 2.0
2017-Oct-02 20:23N 40°52' E 029°13'0 0.0
2017-Oct-02 19:52N 40°52' E 029°13'0 0.0
2017-Oct-02 19:28N 40°52' E 029°13'0 0.0
2017-Oct-02 18:52N 40°52' E 029°13'0 0.1
2017-Oct-02 18:23N 40°52' E 029°13'0 0.0
2017-Oct-02 17:44N 40°52' E 029°13'0 0.0
2017-Oct-02 17:27N 40°52' E 029°13'0 0.0
2017-Oct-02 16:57N 40°52' E 029°13'0 0.0
2017-Oct-02 16:24N 40°52' E 029°13'0 0.0
2017-Oct-02 16:00N 40°52' E 029°13'0 0.1
2017-Oct-02 15:26N 40°52' E 029°13'0 0.1
2017-Oct-02 14:54N 40°52' E 029°13'0 0.1
2017-Oct-02 14:29N 40°52' E 029°13'0 0.0
2017-Oct-02 13:55N 40°52' E 029°13'0 0.0
2017-Oct-02 13:29N 40°52' E 029°13'0 0.1
2017-Oct-02 12:53N 40°52' E 029°13'0 0.1
2017-Oct-02 12:27N 40°52' E 029°13'0 0.1
2017-Oct-02 11:59N 40°52' E 029°13'0 0.1
2017-Oct-02 11:19N 40°52' E 029°13'0 0.0
2017-Oct-02 10:53N 40°52' E 029°13'0 0.1
2017-Oct-02 10:23N 40°52' E 029°13'0 0.0
2017-Oct-02 09:57N 40°52' E 029°13'0 0.0
2017-Oct-02 09:25N 40°52' E 029°13'0 0.0
2017-Oct-02 08:56N 40°52' E 029°13'0 0.0
2017-Oct-02 08:21N 40°52' E 029°13'0 0.0
2017-Oct-02 07:54N 40°52' E 029°13'0 0.0
2017-Oct-02 07:28N 40°52' E 029°13'0 0.1
2017-Oct-02 06:52N 40°52' E 029°13'1 4.0
2017-Oct-02 06:30N 40°51' E 029°14'3 4.1
2017-Oct-02 05:53N 40°51' E 029°17'0 0.0
2017-Oct-02 05:29N 40°51' E 029°17'0 0.0
2017-Oct-02 04:56N 40°51' E 029°17'0 0.0
2017-Oct-02 04:26N 40°51' E 029°17'0 0.0
2017-Oct-02 03:57N 40°51' E 029°17'0 0.0
2017-Oct-02 03:09N 40°51' E 029°17'0 0.0
2017-Oct-02 02:50N 40°51' E 029°17'0 0.0
2017-Oct-02 02:26N 40°51' E 029°17'0 0.0
2017-Oct-02 01:58N 40°51' E 029°17'0 0.0
2017-Oct-02 01:28N 40°51' E 029°17'0 0.0
2017-Oct-02 00:52N 40°51' E 029°17'0 0.0
2017-Oct-02 00:21N 40°51' E 029°17'0 0.0
2017-Oct-01 23:59N 40°51' E 029°17'0 0.0
2017-Oct-01 23:29N 40°51' E 029°17'0 0.0
2017-Oct-01 22:54N 40°51' E 029°17'0 0.0
2017-Oct-01 22:24N 40°51' E 029°17'0 0.0
2017-Oct-01 21:56N 40°51' E 029°17'0 0.0
2017-Oct-01 21:27N 40°51' E 029°17'0 0.0
2017-Oct-01 20:59N 40°51' E 029°17'0 0.0
2017-Oct-01 20:29N 40°51' E 029°17'0 0.0
2017-Oct-01 19:59N 40°51' E 029°17'0 0.0
2017-Oct-01 19:27N 40°51' E 029°17'0 0.0
2017-Oct-01 18:58N 40°51' E 029°17'0 0.0
2017-Oct-01 18:28N 40°51' E 029°17'0 0.0
2017-Oct-01 17:52N 40°51' E 029°17'0 0.0
2017-Oct-01 17:26N 40°51' E 029°17'0 0.0
2017-Oct-01 16:55N 40°51' E 029°17'0 0.0
2017-Oct-01 16:29N 40°51' E 029°17'0 0.0
2017-Oct-01 15:58N 40°51' E 029°17'0 0.0
2017-Oct-01 15:25N 40°51' E 029°17'0 0.0
2017-Oct-01 14:57N 40°51' E 029°17'0 0.0
2017-Oct-01 14:14N 40°51' E 029°17'0 0.0
2017-Oct-01 13:57N 40°51' E 029°17'0 0.0
2017-Oct-01 13:07N 40°51' E 029°17'0 0.0
2017-Oct-01 12:55N 40°51' E 029°17'0 0.0
2017-Oct-01 12:25N 40°51' E 029°17'0 0.0
2017-Oct-01 11:48N 40°51' E 029°17'0 0.0
2017-Oct-01 11:12N 40°51' E 029°17'0 0.0
2017-Oct-01 10:52N 40°51' E 029°17'0 0.0
2017-Oct-01 10:26N 40°51' E 029°17'0 0.0
2017-Oct-01 09:55N 40°51' E 029°17'0 0.0
2017-Oct-01 09:27N 40°51' E 029°17'0 0.0
2017-Oct-01 08:56N 40°51' E 029°17'0 0.0
2017-Oct-01 08:27N 40°51' E 029°17'0 0.0
2017-Oct-01 07:57N 40°51' E 029°17'0 0.0
2017-Oct-01 07:27N 40°51' E 029°17'0 0.0
2017-Oct-01 06:53N 40°51' E 029°17'0 0.0
2017-Oct-01 06:29N 40°51' E 029°17'0 0.0
2017-Oct-01 05:54N 40°51' E 029°17'0 0.0
2017-Oct-01 05:25N 40°51' E 029°17'0 0.0
2017-Oct-01 04:50N 40°51' E 029°17'0 0.0
2017-Oct-01 04:26N 40°51' E 029°17'0 0.0
2017-Oct-01 03:56N 40°51' E 029°17'0 0.0
2017-Oct-01 03:25N 40°51' E 029°17'0 0.0
2017-Oct-01 02:59N 40°51' E 029°17'  
Track history (hours):
 
Tides and Currents Weather Stations Pressure Air Temp Water Temp Dewpoint Dewpoint Depression Visibility Wind Speed Wind Dir Waves Ship Positions

Meryem Nejla Ana

Last reported at 2017-Oct-04 14:34 UTC. Time now 2017-Oct-17 08:01 UTC.
Position N 40°55' E 029°04'.
Warning: this ship's position is 12 days out of date.

Length 94 m; draft 6.7 m.

Type: Ship. MMSI: 271002689.

Date/timePositionNaut miles runAvg speedWind from/ knotsBaromVisibWave heightAir tempDewpointWater temp
2017-Oct-04 14:34N 40°55' E 029°04'1 8.2
2017-Oct-04 14:28N 40°55' E 029°05'4 9.3
2017-Oct-04 14:00N 40°52' E 029°10'1 1.4
2017-Oct-04 13:24N 40°52' E 029°11'0 0.0
2017-Oct-04 13:00N 40°52' E 029°11'0 0.0
2017-Oct-04 12:29N 40°52' E 029°11'0 0.1
2017-Oct-04 12:00N 40°52' E 029°11'2 3.1
2017-Oct-04 11:30N 40°51' E 029°12'5 9.3
2017-Oct-04 11:00N 40°47' E 029°15'5 9.0
2017-Oct-04 10:30N 40°45' E 029°20'4 0.1
2017-Oct-02 22:41N 40°44' E 029°25'210.6
2017-Oct-02 22:27N 40°43' E 029°22'2 5.4
2017-Oct-02 22:00N 40°44' E 029°19'5 9.2
2017-Oct-02 21:30N 40°46' E 029°14'5 9.2
2017-Oct-02 21:00N 40°51' E 029°12'1 2.0
2017-Oct-02 20:23N 40°52' E 029°13'0 0.0
2017-Oct-02 19:52N 40°52' E 029°13'0 0.0
2017-Oct-02 19:28N 40°52' E 029°13'0 0.0
2017-Oct-02 18:52N 40°52' E 029°13'0 0.1
2017-Oct-02 18:23N 40°52' E 029°13'0 0.0
2017-Oct-02 17:44N 40°52' E 029°13'0 0.0
2017-Oct-02 17:27N 40°52' E 029°13'0 0.0
2017-Oct-02 16:57N 40°52' E 029°13'0 0.0
2017-Oct-02 16:24N 40°52' E 029°13'0 0.0
2017-Oct-02 16:00N 40°52' E 029°13'0 0.1
2017-Oct-02 15:26N 40°52' E 029°13'0 0.1
2017-Oct-02 14:54N 40°52' E 029°13'0 0.1
2017-Oct-02 14:29N 40°52' E 029°13'0 0.0
2017-Oct-02 13:55N 40°52' E 029°13'0 0.0
2017-Oct-02 13:29N 40°52' E 029°13'0 0.1
2017-Oct-02 12:53N 40°52' E 029°13'0 0.1
2017-Oct-02 12:27N 40°52' E 029°13'0 0.1
2017-Oct-02 11:59N 40°52' E 029°13'0 0.1
2017-Oct-02 11:19N 40°52' E 029°13'0 0.0
2017-Oct-02 10:53N 40°52' E 029°13'0 0.1
2017-Oct-02 10:23N 40°52' E 029°13'0 0.0
2017-Oct-02 09:57N 40°52' E 029°13'0 0.0
2017-Oct-02 09:25N 40°52' E 029°13'0 0.0
2017-Oct-02 08:56N 40°52' E 029°13'0 0.0
2017-Oct-02 08:21N 40°52' E 029°13'0 0.0
2017-Oct-02 07:54N 40°52' E 029°13'0 0.0
2017-Oct-02 07:28N 40°52' E 029°13'0 0.1
2017-Oct-02 06:52N 40°52' E 029°13'1 4.0
2017-Oct-02 06:30N 40°51' E 029°14'3 4.1
2017-Oct-02 05:53N 40°51' E 029°17'0 0.0
2017-Oct-02 05:29N 40°51' E 029°17'0 0.0
2017-Oct-02 04:56N 40°51' E 029°17'0 0.0
2017-Oct-02 04:26N 40°51' E 029°17'0 0.0
2017-Oct-02 03:57N 40°51' E 029°17'0 0.0
2017-Oct-02 03:09N 40°51' E 029°17'0 0.0
2017-Oct-02 02:50N 40°51' E 029°17'0 0.0
2017-Oct-02 02:26N 40°51' E 029°17'0 0.0
2017-Oct-02 01:58N 40°51' E 029°17'0 0.0
2017-Oct-02 01:28N 40°51' E 029°17'0 0.0
2017-Oct-02 00:52N 40°51' E 029°17'0 0.0
2017-Oct-02 00:21N 40°51' E 029°17'0 0.0
2017-Oct-01 23:59N 40°51' E 029°17'0 0.0
2017-Oct-01 23:29N 40°51' E 029°17'0 0.0
2017-Oct-01 22:54N 40°51' E 029°17'0 0.0
2017-Oct-01 22:24N 40°51' E 029°17'0 0.0
2017-Oct-01 21:56N 40°51' E 029°17'0 0.0
2017-Oct-01 21:27N 40°51' E 029°17'0 0.0
2017-Oct-01 20:59N 40°51' E 029°17'0 0.0
2017-Oct-01 20:29N 40°51' E 029°17'0 0.0
2017-Oct-01 19:59N 40°51' E 029°17'0 0.0
2017-Oct-01 19:27N 40°51' E 029°17'0 0.0
2017-Oct-01 18:58N 40°51' E 029°17'0 0.0
2017-Oct-01 18:28N 40°51' E 029°17'0 0.0
2017-Oct-01 17:52N 40°51' E 029°17'0 0.0
2017-Oct-01 17:26N 40°51' E 029°17'0 0.0
2017-Oct-01 16:55N 40°51' E 029°17'0 0.0
2017-Oct-01 16:29N 40°51' E 029°17'0 0.0
2017-Oct-01 15:58N 40°51' E 029°17'0 0.0
2017-Oct-01 15:25N 40°51' E 029°17'0 0.0
2017-Oct-01 14:57N 40°51' E 029°17'0 0.0
2017-Oct-01 14:14N 40°51' E 029°17'0 0.0
2017-Oct-01 13:57N 40°51' E 029°17'0 0.0
2017-Oct-01 13:07N 40°51' E 029°17'0 0.0
2017-Oct-01 12:55N 40°51' E 029°17'0 0.0
2017-Oct-01 12:25N 40°51' E 029°17'0 0.0
2017-Oct-01 11:48N 40°51' E 029°17'0 0.0
2017-Oct-01 11:12N 40°51' E 029°17'0 0.0
2017-Oct-01 10:52N 40°51' E 029°17'0 0.0
2017-Oct-01 10:26N 40°51' E 029°17'0 0.0
2017-Oct-01 09:55N 40°51' E 029°17'0 0.0
2017-Oct-01 09:27N 40°51' E 029°17'0 0.0
2017-Oct-01 08:56N 40°51' E 029°17'0 0.0
2017-Oct-01 08:27N 40°51' E 029°17'0 0.0
2017-Oct-01 07:57N 40°51' E 029°17'0 0.0
2017-Oct-01 07:27N 40°51' E 029°17'0 0.0
2017-Oct-01 06:53N 40°51' E 029°17'0 0.0
2017-Oct-01 06:29N 40°51' E 029°17'0 0.0
2017-Oct-01 05:54N 40°51' E 029°17'0 0.0
2017-Oct-01 05:25N 40°51' E 029°17'0 0.0
2017-Oct-01 04:50N 40°51' E 029°17'0 0.0
2017-Oct-01 04:26N 40°51' E 029°17'0 0.0
2017-Oct-01 03:56N 40°51' E 029°17'0 0.0
2017-Oct-01 03:25N 40°51' E 029°17'0 0.0
2017-Oct-01 02:59N 40°51' E 029°17'  

Dump ship's entire track history